Time,TemperatureF,DewpointF,PressureIn,WindDirection,WindDirectionDegrees,WindSpeedMPH,WindSpeedGustMPH,Humidity,HourlyPrecipIn,Conditions,Clouds,dailyrainin,SolarRadiationWatts/m^2,SoftwareType,DateUTC
2013-04-09 00:00:00,41.0,18.0,-100.00,North,355,1.0,6.0,39,-99.99,,,0.00,0.000000,,2013-04-09 06:00:00,
2013-04-09 01:00:00,37.0,-99.9,-100.00,North,-999,-999.0,-999.0,-999,-99.99,,,0.00,,,2013-04-09 07:00:00,
2013-04-09 01:53:00,37.0,-99.9,-100.00,North,-999,-999.0,-999.0,-999,-99.99,,,0.00,,,2013-04-09 07:53:00,
2013-04-09 02:00:00,36.0,26.0,-100.00,South,186,1.0,3.0,65,-99.99,,,0.00,0.000000,,2013-04-09 08:00:00,
2013-04-09 03:00:00,39.0,-99.9,-100.00,North,-999,-999.0,-999.0,-999,-99.99,,,0.00,,,2013-04-09 09:00:00,
2013-04-09 04:00:00,40.0,22.0,-100.00,North,5,2.0,11.0,49,-99.99,,,0.00,0.000000,,2013-04-09 10:00:00,
2013-04-09 05:00:00,40.0,-99.9,-100.00,North,-999,-999.0,-999.0,-999,-99.99,,,0.00,,,2013-04-09 11:00:00,
2013-04-09 06:00:00,38.0,18.0,-100.00,NNW,339,3.0,10.0,43,-99.99,,,0.00,0.000000,,2013-04-09 12:00:00,
2013-04-09 07:00:00,37.0,14.0,-100.00,North,3,3.0,9.0,39,-99.99,,,0.00,1.800000,,2013-04-09 13:00:00,
2013-04-09 08:00:00,32.0,16.0,-100.00,North,349,2.0,7.0,51,-99.99,,,0.00,21.100000,,2013-04-09 14:00:00,
2013-04-09 09:00:00,37.0,31.0,-100.00,North,360,1.0,4.0,79,-99.99,,,0.00,104.400002,,2013-04-09 15:00:00,
2013-04-09 10:00:00,34.0,21.0,-100.00,NE,51,2.0,9.0,58,-99.99,,,-99.99,122.699997,,2013-04-09 16:00:00,
2013-04-09 11:00:00,30.0,25.0,-100.00,ENE,59,3.0,8.0,82,-99.99,,,0.00,170.000000,,2013-04-09 17:00:00,
2013-04-09 13:00:00,29.0,24.0,-100.00,NE,56,2.0,7.0,83,-99.99,,,0.01,229.199997,,2013-04-09 19:00:00,
2013-04-09 14:00:00,29.0,26.0,-100.00,ENE,74,2.0,7.0,89,-99.99,,,0.01,209.699997,,2013-04-09 20:00:00,
2013-04-09 15:00:00,27.0,24.0,-100.00,ENE,73,2.0,9.0,91,-99.99,,,0.01,55.299999,,2013-04-09 21:00:00,
2013-04-09 16:00:00,27.0,24.0,-100.00,ESE,103,2.0,8.0,90,-99.99,,,0.01,142.600006,,2013-04-09 22:00:00,
2013-04-09 17:00:00,25.0,23.0,-100.00,East,92,3.0,10.0,92,-99.99,,,0.02,96.199997,,2013-04-09 23:00:00,
2013-04-09 18:00:00,26.0,-99.9,-100.00,North,-999,-999.0,-999.0,-999,-99.99,,,0.01,,,2013-04-10 00:00:00,
2013-04-09 19:00:00,26.0,22.0,-100.00,SE,144,1.0,5.0,86,-99.99,,,0.01,58.299999,,2013-04-10 01:00:00,
2013-04-09 20:00:00,23.0,20.0,-100.00,SSE,147,2.0,4.0,91,-99.99,,,0.01,4.600000,,2013-04-10 02:00:00,
2013-04-09 22:00:00,26.0,25.0,-100.00,SE,144,1.0,2.0,94,-99.99,,,0.01,0.000000,,2013-04-10 04:00:00,
2013-04-09 23:00:00,26.0,25.0,-100.00,ENE,57,0.0,2.0,96,-99.99,,,0.01,0.000000,,2013-04-10 05:00:00,
2013-04-09 23:43:00,26.0,25.0,-100.00,ENE,57,0.0,2.0,96,-99.99,,,0.01,0.000000,,2013-04-10 05:43:00,
2013-04-09 23:53:00,26.0,25.0,-100.00,ENE,57,0.0,2.0,96,-99.99,,,0.01,0.000000,,2013-04-10 05:53:00,